createdAt,value
2022-11-04T00:01:05.054Z,5.25
2022-11-04T00:03:34.330Z,4.70
2022-11-04T00:06:05.225Z,4.68
2022-11-04T00:08:34.328Z,4.55
2022-11-04T00:11:21.244Z,4.53
2022-11-04T00:13:50.392Z,5.32
2022-11-04T00:16:37.295Z,5.43
2022-11-04T00:19:06.270Z,4.45
2022-11-04T00:21:54.415Z,4.97
2022-11-04T00:24:40.966Z,4.90
2022-11-04T00:27:28.009Z,5.25
2022-11-04T00:29:57.248Z,4.95
2022-11-04T00:32:44.124Z,4.50
2022-11-04T00:35:15.277Z,4.53
2022-11-04T00:37:46.132Z,5.10
2022-11-04T00:40:16.257Z,5.97
2022-11-04T00:42:46.684Z,5.25
2022-11-04T00:45:16.665Z,5.20
2022-11-04T00:47:46.111Z,4.70
2022-11-04T00:50:15.393Z,4.80
2022-11-04T00:52:46.419Z,5.32
2022-11-04T00:55:15.837Z,4.18
2022-11-04T00:57:44.852Z,5.30
2022-11-04T01:00:16.767Z,5.57
2022-11-04T01:02:45.993Z,5.13
2022-11-04T01:05:15.119Z,6.10
2022-11-04T01:07:45.698Z,5.28
2022-11-04T01:10:14.777Z,5.30
2022-11-04T01:12:43.900Z,5.93
2022-11-04T01:15:12.937Z,5.60
2022-11-04T01:17:42.059Z,5.80
2022-11-04T01:20:11.634Z,7.20
2022-11-04T01:22:41.961Z,7.43
2022-11-04T01:25:14.858Z,7.22
2022-11-04T01:27:49.324Z,5.20
2022-11-04T01:30:20.270Z,7.00
2022-11-04T01:32:50.488Z,5.68
2022-11-04T01:35:19.918Z,5.50
2022-11-04T01:37:49.077Z,5.45
2022-11-04T01:40:19.987Z,5.85
2022-11-04T01:42:49.395Z,4.70
2022-11-04T01:45:21.102Z,4.47
2022-11-04T01:47:52.430Z,2.88
2022-11-04T01:50:24.523Z,3.92
2022-11-04T01:55:25.464Z,2.78
2022-11-04T02:00:23.818Z,3.00
2022-11-04T02:02:56.611Z,3.05
2022-11-04T02:05:25.858Z,3.28
2022-11-04T02:07:57.890Z,3.65
2022-11-04T02:12:56.635Z,3.65
2022-11-04T02:15:29.456Z,2.92
2022-11-04T02:18:17.521Z,4.05
2022-11-04T02:20:52.761Z,3.35
2022-11-04T02:23:43.848Z,2.92
2022-11-04T02:26:30.689Z,2.25
2022-11-04T02:29:10.944Z,2.50
2022-11-04T02:31:41.958Z,1.90
2022-11-04T02:34:15.990Z,2.10
2022-11-04T02:36:50.879Z,1.55
2022-11-04T02:39:24.227Z,1.85
2022-11-04T02:41:57.333Z,2.30
2022-11-04T02:44:32.364Z,3.90
2022-11-04T02:47:03.392Z,3.53
2022-11-04T02:49:36.765Z,4.80
2022-11-04T02:52:08.057Z,5.20
2022-11-04T02:54:39.713Z,5.70
2022-11-04T02:57:10.893Z,6.25
2022-11-04T02:59:43.845Z,7.73
2022-11-04T03:02:15.882Z,8.13
2022-11-04T03:04:48.252Z,9.60
2022-11-04T03:09:50.496Z,10.73
2022-11-04T03:12:21.758Z,11.43
2022-11-04T03:14:54.557Z,10.63
2022-11-04T03:17:25.805Z,8.77
2022-11-04T03:19:56.337Z,10.38
2022-11-04T03:22:27.620Z,9.73
2022-11-04T03:24:57.117Z,9.40
2022-11-04T03:27:31.484Z,8.93
2022-11-04T03:37:43.485Z,10.90
2022-11-04T03:40:14.580Z,8.75
2022-11-04T03:42:46.997Z,8.73
2022-11-04T03:45:18.370Z,8.07
2022-11-04T03:47:47.841Z,8.98
2022-11-04T03:50:27.795Z,9.85
2022-11-04T03:52:57.598Z,9.55
2022-11-04T03:55:32.898Z,8.30
2022-11-04T03:58:08.138Z,8.25
2022-11-04T04:00:39.317Z,8.13
2022-11-04T04:03:10.092Z,8.05
2022-11-04T04:05:41.395Z,7.35
2022-11-04T04:08:14.245Z,7.75
2022-11-04T04:10:50.079Z,7.35
2022-11-04T04:13:21.800Z,7.22
2022-11-04T04:15:55.760Z,5.63
2022-11-04T04:18:28.457Z,5.88
2022-11-04T04:20:58.603Z,5.85
2022-11-04T04:23:47.007Z,3.97
2022-11-04T04:26:35.945Z,6.00
2022-11-04T04:29:06.714Z,4.38
2022-11-04T04:31:52.827Z,5.63
2022-11-04T04:34:23.814Z,5.60
2022-11-04T04:36:55.144Z,4.00
2022-11-04T04:39:43.255Z,4.10
2022-11-04T04:42:31.171Z,3.47
2022-11-04T04:45:04.462Z,4.15
2022-11-04T04:47:37.076Z,3.85
2022-11-04T04:50:07.445Z,5.00
2022-11-04T04:52:38.827Z,4.63
2022-11-04T04:55:08.357Z,3.25
2022-11-04T04:57:39.152Z,3.95
2022-11-04T05:00:10.166Z,3.72
2022-11-04T05:02:42.602Z,3.55
2022-11-04T05:05:13.346Z,4.18
2022-11-04T05:07:42.561Z,3.70
2022-11-04T05:10:12.737Z,4.47
2022-11-04T05:13:00.592Z,4.63
2022-11-04T05:15:30.307Z,4.57
2022-11-04T05:18:00.756Z,4.07
2022-11-04T05:20:30.526Z,5.05
2022-11-04T05:23:02.357Z,5.75
2022-11-04T05:25:31.953Z,5.43
2022-11-04T05:28:02.963Z,5.40
2022-11-04T05:30:31.886Z,5.75
2022-11-04T05:33:04.671Z,6.43
2022-11-04T05:35:35.377Z,6.30
2022-11-04T05:38:05.016Z,6.72
2022-11-04T05:40:35.337Z,7.97
2022-11-04T05:43:06.862Z,6.80
2022-11-04T05:45:36.721Z,8.35
2022-11-04T05:48:07.161Z,7.63
2022-11-04T05:50:36.879Z,7.43
2022-11-04T05:53:08.086Z,6.90
2022-11-04T05:55:37.882Z,8.20
2022-11-04T05:58:08.545Z,8.90
2022-11-04T06:00:37.914Z,10.35
2022-11-04T06:03:10.697Z,6.97
2022-11-04T06:05:42.799Z,7.75
2022-11-04T06:08:12.152Z,8.15
2022-11-04T06:10:41.778Z,7.18
2022-11-04T06:13:12.296Z,9.27
2022-11-04T06:15:41.293Z,9.90
2022-11-04T06:18:10.721Z,8.25
2022-11-04T06:20:40.112Z,8.02
2022-11-04T06:23:09.301Z,8.45
2022-11-04T06:25:38.786Z,8.25
2022-11-04T06:28:08.727Z,6.93
2022-11-04T06:30:39.679Z,7.95
2022-11-04T06:33:09.098Z,9.00
2022-11-04T06:35:38.427Z,8.15
2022-11-04T06:38:09.081Z,6.53
2022-11-04T06:40:39.726Z,6.30
2022-11-04T06:43:09.319Z,6.97
2022-11-04T06:45:40.391Z,6.30
2022-11-04T06:48:09.638Z,6.05
2022-11-04T06:50:39.191Z,7.05
2022-11-04T06:53:08.668Z,6.40
2022-11-04T06:55:40.431Z,7.55
2022-11-04T06:58:12.405Z,6.53
2022-11-04T07:00:43.018Z,7.25
2022-11-04T07:03:12.368Z,6.38
2022-11-04T07:05:41.684Z,7.63
2022-11-04T07:08:11.105Z,7.57
2022-11-04T07:10:40.370Z,7.38
2022-11-04T07:13:09.537Z,6.40
2022-11-04T07:15:40.335Z,6.80
2022-11-04T07:18:11.726Z,7.65
2022-11-04T07:20:41.334Z,6.82
2022-11-04T07:23:11.030Z,9.98
2022-11-04T07:25:40.254Z,8.25
2022-11-04T07:28:09.799Z,7.28
2022-11-04T07:30:39.289Z,6.93
2022-11-04T07:33:08.869Z,6.25
2022-11-04T07:35:39.551Z,7.57
2022-11-04T07:38:09.087Z,8.05
2022-11-04T07:40:39.952Z,6.43
2022-11-04T07:43:09.272Z,7.60
2022-11-04T07:45:40.081Z,7.88
2022-11-04T07:48:11.073Z,7.38
2022-11-04T07:50:42.448Z,8.68
2022-11-04T07:53:12.423Z,8.53
2022-11-04T07:55:44.372Z,8.90
2022-11-04T07:58:17.013Z,7.18
2022-11-04T08:00:47.704Z,7.88
2022-11-04T08:03:17.413Z,8.30
2022-11-04T08:05:48.369Z,10.45
2022-11-04T08:08:19.078Z,7.55
2022-11-04T08:10:53.884Z,6.95
2022-11-04T08:13:23.555Z,7.20
2022-11-04T08:16:15.824Z,7.30
2022-11-04T08:21:35.402Z,7.85
2022-11-04T08:24:09.118Z,8.38
2022-11-04T08:26:42.968Z,7.43
2022-11-04T08:29:12.966Z,8.65
2022-11-04T08:31:42.595Z,7.43
2022-11-04T08:34:12.472Z,6.38
2022-11-04T08:36:43.783Z,6.20
2022-11-04T08:39:14.266Z,7.45
2022-11-04T08:41:45.550Z,6.95
2022-11-04T08:44:18.546Z,6.28
2022-11-04T08:46:49.516Z,6.60
2022-11-04T08:49:21.580Z,7.30
2022-11-04T08:52:07.888Z,6.13
2022-11-04T08:54:41.458Z,5.50
2022-11-04T08:57:16.317Z,5.88
2022-11-04T08:59:51.434Z,5.78
2022-11-04T09:02:30.925Z,5.75
2022-11-04T09:05:08.389Z,6.22
2022-11-04T09:07:40.600Z,4.97
2022-11-04T09:10:12.112Z,4.53
2022-11-04T09:12:47.644Z,5.93
2022-11-04T09:15:18.299Z,4.35
2022-11-04T09:17:47.554Z,5.53
2022-11-04T09:20:16.901Z,5.38
2022-11-04T09:22:50.375Z,4.05
2022-11-04T09:25:19.879Z,4.13
2022-11-04T09:27:49.092Z,3.05
2022-11-04T09:30:18.282Z,3.28
2022-11-04T09:32:52.371Z,2.97
2022-11-04T09:35:22.002Z,3.35
2022-11-04T09:37:52.883Z,3.38
2022-11-04T09:40:23.450Z,2.88
2022-11-04T09:43:02.772Z,3.22
2022-11-04T09:45:33.823Z,3.55
2022-11-04T09:48:09.323Z,2.65
2022-11-04T09:50:43.386Z,2.65
2022-11-04T09:53:17.785Z,2.95
2022-11-04T09:55:51.721Z,2.80
2022-11-04T09:58:21.296Z,2.67
2022-11-04T10:00:53.319Z,2.17
2022-11-04T10:05:59.426Z,2.25
2022-11-04T10:08:38.253Z,2.72
2022-11-04T10:11:12.135Z,2.80
2022-11-04T10:13:51.160Z,3.38
2022-11-04T10:16:26.366Z,2.28
2022-11-04T10:19:11.037Z,3.00
2022-11-04T10:21:45.503Z,3.03
2022-11-04T10:24:21.568Z,2.47
2022-11-04T10:27:00.607Z,2.42
2022-11-04T10:29:33.968Z,2.42
2022-11-04T10:32:04.854Z,1.92
2022-11-04T10:34:38.877Z,2.58
2022-11-04T10:37:10.998Z,1.60
2022-11-04T10:39:46.833Z,2.58
2022-11-04T10:42:25.155Z,3.38
2022-11-04T10:44:56.720Z,3.97
2022-11-04T10:47:33.351Z,3.08
2022-11-04T10:50:33.148Z,2.40
2022-11-04T10:53:11.884Z,3.50
2022-11-04T10:55:47.387Z,2.42
2022-11-04T10:58:23.976Z,2.45
2022-11-04T11:00:58.102Z,2.35
2022-11-04T11:03:32.344Z,1.67
2022-11-04T11:06:23.079Z,2.28
2022-11-04T11:08:55.801Z,1.02
2022-11-04T11:11:54.354Z,1.88
2022-11-04T11:14:41.787Z,1.70
2022-11-04T11:17:21.921Z,2.17
2022-11-04T11:19:52.744Z,2.55
2022-11-04T11:22:33.099Z,2.03
2022-11-04T11:25:21.460Z,2.60
2022-11-04T11:27:51.923Z,2.28
2022-11-04T11:30:23.210Z,1.95
2022-11-04T11:32:55.940Z,2.30
2022-11-04T11:35:27.326Z,2.38
2022-11-04T11:37:57.802Z,3.33
2022-11-04T11:40:32.177Z,1.88
2022-11-04T11:43:01.918Z,2.10
2022-11-04T11:45:34.272Z,1.90
2022-11-04T11:48:26.867Z,1.88
2022-11-04T11:50:58.815Z,1.85
2022-11-04T11:56:11.748Z,1.80
2022-11-04T12:01:37.941Z,1.95
2022-11-04T12:09:54.281Z,1.70
2022-11-04T12:12:30.437Z,2.22
2022-11-04T12:15:12.810Z,2.55
2022-11-04T12:20:43.985Z,2.35
2022-11-04T12:23:26.273Z,1.65
2022-11-04T12:26:06.583Z,1.92
2022-11-04T12:28:55.390Z,1.90
2022-11-04T12:31:40.599Z,2.80
2022-11-04T12:34:15.290Z,2.85
2022-11-04T12:37:04.196Z,2.88
2022-11-04T12:39:44.081Z,2.55
2022-11-04T12:42:29.704Z,1.63
2022-11-04T12:45:11.832Z,2.45
2022-11-04T12:47:48.469Z,1.80
2022-11-04T12:50:39.319Z,1.70
2022-11-04T12:53:22.526Z,1.90
2022-11-04T12:55:56.327Z,1.55
2022-11-04T12:58:35.450Z,2.03
2022-11-04T13:01:19.864Z,1.25
2022-11-04T13:03:58.515Z,2.03
2022-11-04T13:06:32.215Z,1.25
2022-11-04T13:09:22.273Z,1.77
2022-11-04T13:11:59.681Z,1.27
2022-11-04T13:14:32.166Z,1.30
2022-11-04T13:17:07.082Z,1.20
2022-11-04T13:19:43.064Z,0.80
2022-11-04T13:22:17.921Z,1.30
2022-11-04T13:24:58.669Z,1.73
2022-11-04T13:27:35.749Z,0.90
2022-11-04T13:30:10.592Z,1.10
2022-11-04T13:32:49.682Z,1.02
2022-11-04T13:35:26.553Z,1.55
2022-11-04T13:38:12.949Z,1.05
2022-11-04T13:40:49.630Z,1.40
2022-11-04T13:43:43.632Z,0.82
2022-11-04T13:46:21.810Z,0.70
2022-11-04T13:48:56.130Z,0.85
2022-11-04T13:51:26.008Z,0.70
2022-11-04T13:53:58.428Z,0.83
2022-11-04T13:56:38.792Z,0.93
2022-11-04T13:59:24.061Z,0.80
2022-11-04T14:02:24.458Z,0.70
2022-11-04T14:04:56.412Z,0.60
2022-11-04T14:07:55.585Z,1.33
2022-11-04T14:10:45.456Z,0.60
2022-11-04T14:13:35.203Z,1.20
2022-11-04T14:16:07.394Z,0.65
2022-11-04T14:21:08.011Z,0.57
2022-11-04T14:23:39.766Z,0.55
2022-11-04T14:26:14.905Z,1.00
2022-11-04T14:28:48.957Z,0.70
2022-11-04T14:31:38.342Z,0.50
2022-11-04T14:34:11.829Z,0.68
2022-11-04T14:36:45.392Z,0.77
2022-11-04T14:39:39.935Z,1.13
2022-11-04T14:42:17.406Z,0.50
2022-11-04T14:44:50.441Z,0.73
2022-11-04T14:47:36.610Z,1.27
2022-11-04T14:50:19.389Z,0.50
2022-11-04T14:52:51.855Z,0.70
2022-11-04T14:55:24.825Z,0.60
2022-11-04T14:57:57.668Z,1.45
2022-11-04T15:00:32.603Z,0.52
2022-11-04T15:03:10.163Z,0.50
2022-11-04T15:05:41.804Z,0.75
2022-11-04T15:08:29.061Z,0.80
2022-11-04T15:11:10.231Z,0.70
2022-11-04T15:14:23.817Z,0.60
2022-11-04T15:17:03.973Z,0.88
2022-11-04T15:19:48.941Z,0.80
2022-11-04T15:22:20.297Z,0.50
2022-11-04T15:24:52.530Z,0.70
2022-11-04T15:27:28.596Z,0.80
2022-11-04T15:30:08.230Z,0.43
2022-11-04T15:32:39.861Z,0.70
2022-11-04T15:35:18.810Z,0.50
2022-11-04T15:37:54.337Z,0.80
2022-11-04T15:40:24.763Z,1.33
2022-11-04T15:42:57.392Z,0.95
2022-11-04T15:45:34.025Z,0.70
2022-11-04T15:48:23.997Z,1.25
2022-11-04T15:50:55.159Z,0.93
2022-11-04T15:53:28.700Z,0.83
2022-11-04T15:55:58.740Z,0.73
2022-11-04T15:58:29.079Z,1.42
2022-11-04T16:01:12.596Z,1.20
2022-11-04T16:03:44.152Z,0.90
2022-11-04T16:06:15.619Z,0.90
2022-11-04T16:09:01.452Z,1.00
2022-11-04T16:11:32.517Z,0.90
2022-11-04T16:14:17.594Z,1.15
2022-11-04T16:16:51.716Z,0.73
2022-11-04T16:19:24.882Z,0.88
2022-11-04T16:22:01.557Z,0.88
2022-11-04T16:25:00.590Z,1.25
2022-11-04T16:27:35.346Z,0.80
2022-11-04T16:30:11.701Z,1.20
2022-11-04T16:32:48.276Z,1.23
2022-11-04T16:35:32.089Z,1.15
2022-11-04T16:38:04.753Z,1.90
2022-11-04T16:40:39.126Z,2.20
2022-11-04T16:43:12.867Z,3.03
2022-11-04T16:45:42.682Z,2.97
2022-11-04T16:48:15.240Z,3.13
2022-11-04T16:53:14.375Z,2.80
2022-11-04T16:56:00.529Z,2.22
2022-11-04T16:58:31.727Z,2.50
2022-11-04T17:01:05.490Z,2.10
2022-11-04T17:03:35.026Z,2.28
2022-11-04T17:06:05.125Z,2.67
2022-11-04T17:08:36.020Z,1.85
2022-11-04T17:11:07.177Z,2.10
2022-11-04T17:13:37.726Z,1.50
2022-11-04T17:16:13.889Z,1.92
2022-11-04T17:18:46.834Z,1.85
2022-11-04T17:21:20.481Z,1.50
2022-11-04T17:23:52.957Z,2.17
2022-11-04T17:26:33.519Z,2.45
2022-11-04T17:29:17.252Z,1.90
2022-11-04T17:31:49.385Z,1.92
2022-11-04T17:37:06.346Z,2.33
2022-11-04T17:39:59.044Z,2.42
2022-11-04T17:42:50.902Z,2.22
2022-11-04T17:45:38.549Z,2.40
2022-11-04T17:48:32.693Z,2.60
2022-11-04T17:51:10.248Z,3.03
2022-11-04T17:53:47.749Z,2.65
2022-11-04T17:56:18.599Z,2.22
2022-11-04T18:01:49.312Z,2.60
2022-11-04T18:04:21.395Z,2.53
2022-11-04T18:06:57.188Z,3.47
2022-11-04T18:09:57.517Z,3.88
2022-11-04T18:12:43.863Z,3.95
2022-11-04T18:15:52.086Z,4.93
2022-11-04T18:18:43.913Z,4.65
2022-11-04T18:21:22.704Z,3.95
2022-11-04T18:23:58.902Z,3.92
2022-11-04T18:26:35.163Z,4.63
2022-11-04T18:29:47.521Z,6.18
2022-11-04T18:38:33.241Z,4.22
2022-11-04T18:41:48.705Z,3.92
2022-11-04T18:51:26.607Z,5.47
2022-11-04T18:53:57.273Z,5.30
2022-11-04T18:56:27.180Z,5.20
2022-11-04T18:58:57.280Z,5.35
2022-11-04T19:01:27.977Z,4.90
2022-11-04T19:03:59.768Z,5.78
2022-11-04T19:06:32.641Z,5.70
2022-11-04T19:09:13.487Z,4.43
2022-11-04T19:11:48.855Z,5.68
2022-11-04T19:14:22.490Z,4.47
2022-11-04T19:16:51.976Z,4.72
2022-11-04T19:19:24.859Z,4.00
2022-11-04T19:21:56.200Z,4.38
2022-11-04T19:24:26.613Z,4.80
2022-11-04T19:26:56.477Z,4.90
2022-11-04T19:29:26.468Z,5.03
2022-11-04T19:31:55.973Z,5.07
2022-11-04T19:34:27.750Z,4.57
2022-11-04T19:36:59.080Z,5.88
2022-11-04T19:39:28.924Z,5.43
2022-11-04T19:42:16.785Z,5.70
2022-11-04T19:44:47.037Z,11.32
2022-11-04T19:47:17.450Z,12.65
2022-11-04T19:49:46.928Z,14.10
2022-11-04T19:52:18.124Z,15.52
2022-11-04T19:54:47.550Z,15.70
2022-11-04T19:57:33.641Z,17.48
2022-11-04T20:00:24.249Z,16.45
2022-11-04T20:03:50.514Z,16.17
2022-11-04T20:07:14.542Z,17.38
2022-11-04T20:09:53.150Z,15.10
2022-11-04T20:12:42.801Z,16.35
2022-11-04T20:15:15.310Z,14.57
2022-11-04T20:17:49.430Z,14.52
2022-11-04T20:20:35.446Z,15.48
2022-11-04T20:23:06.968Z,16.10
2022-11-04T20:26:17.717Z,16.58
2022-11-04T20:29:05.159Z,15.15
2022-11-04T20:31:45.790Z,16.98
2022-11-04T20:34:55.885Z,18.17
2022-11-04T20:38:06.508Z,20.48
2022-11-04T20:45:24.319Z,18.55
2022-11-04T20:48:32.890Z,18.33
2022-11-04T20:51:36.506Z,16.85
2022-11-04T21:06:28.896Z,16.88
2022-11-04T21:09:24.531Z,17.50
2022-11-04T21:12:08.873Z,16.05
2022-11-04T21:14:57.739Z,17.10
2022-11-04T21:17:40.223Z,16.35
2022-11-04T21:26:24.285Z,17.63
2022-11-04T21:29:21.097Z,18.08
2022-11-04T21:31:59.023Z,21.02
2022-11-04T21:34:30.115Z,20.02
2022-11-04T21:37:00.630Z,20.25
2022-11-04T21:39:31.783Z,19.90
2022-11-04T21:42:01.511Z,20.88
2022-11-04T21:44:32.620Z,18.20
2022-11-04T21:47:03.188Z,19.38
2022-11-04T21:49:35.778Z,16.92
2022-11-04T21:52:05.745Z,18.85
2022-11-04T21:54:34.834Z,17.80
2022-11-04T21:57:04.290Z,17.98
2022-11-04T21:59:34.799Z,16.75
2022-11-04T22:02:04.087Z,15.88
2022-11-04T22:04:33.535Z,14.93
2022-11-04T22:07:02.586Z,15.07
2022-11-04T22:09:31.738Z,15.93
2022-11-04T22:12:04.314Z,15.77
2022-11-04T22:14:34.683Z,16.50
2022-11-04T22:17:03.687Z,15.00
2022-11-04T22:19:33.263Z,14.85
2022-11-04T22:22:02.696Z,13.85
2022-11-04T22:24:31.828Z,14.02
2022-11-04T22:27:00.938Z,12.52
2022-11-04T22:29:31.495Z,13.82
2022-11-04T22:32:02.206Z,12.90
2022-11-04T22:34:31.729Z,13.80
2022-11-04T22:37:01.334Z,12.48
2022-11-04T22:39:30.987Z,12.35
2022-11-04T22:42:00.093Z,11.07
2022-11-04T22:44:29.076Z,10.73
2022-11-04T22:46:58.229Z,11.95
2022-11-04T22:49:28.774Z,10.95
2022-11-04T22:51:57.735Z,11.55
2022-11-04T22:54:26.869Z,9.57
2022-11-04T22:56:55.990Z,10.43
2022-11-04T22:59:25.175Z,11.85
2022-11-04T23:01:54.298Z,9.73
2022-11-04T23:04:23.533Z,10.02
2022-11-04T23:06:53.986Z,9.38
2022-11-04T23:09:23.671Z,9.98
2022-11-04T23:12:10.194Z,10.30
2022-11-04T23:14:56.712Z,10.43
2022-11-04T23:17:43.601Z,11.30
2022-11-04T23:20:14.269Z,11.52
2022-11-04T23:23:02.680Z,11.18
2022-11-04T23:25:32.633Z,9.40
2022-11-04T23:28:19.397Z,11.82
2022-11-04T23:30:49.061Z,10.20
2022-11-04T23:33:18.263Z,10.35
2022-11-04T23:36:11.055Z,9.73
2022-11-04T23:38:44.192Z,9.45
2022-11-04T23:41:44.454Z,9.75
2022-11-04T23:44:34.227Z,8.32
2022-11-04T23:47:20.802Z,10.48
2022-11-04T23:50:07.294Z,10.80
2022-11-04T23:52:56.099Z,8.70
2022-11-04T23:55:47.341Z,9.75
2022-11-04T23:58:34.450Z,9.07
